sensor_id;sensor_type;location;lat;lon;timestamp;P1;durP1;ratioP1;P2;durP2;ratioP2
47529;SDS011;33272;51.922;7.730;2022-11-14T00:00:49;26.03;;;17.23;;
47529;SDS011;33272;51.922;7.730;2022-11-14T00:03:17;25.83;;;17.50;;
47529;SDS011;33272;51.922;7.730;2022-11-14T00:05:45;26.93;;;16.50;;
47529;SDS011;33272;51.922;7.730;2022-11-14T00:08:13;29.93;;;18.33;;
47529;SDS011;33272;51.922;7.730;2022-11-14T00:10:43;26.40;;;17.70;;
47529;SDS011;33272;51.922;7.730;2022-11-14T00:13:11;26.10;;;17.90;;
47529;SDS011;33272;51.922;7.730;2022-11-14T00:15:40;27.43;;;17.50;;
47529;SDS011;33272;51.922;7.730;2022-11-14T00:18:07;24.20;;;17.20;;
47529;SDS011;33272;51.922;7.730;2022-11-14T00:20:36;29.43;;;19.17;;
47529;SDS011;33272;51.922;7.730;2022-11-14T00:23:02;28.90;;;17.40;;
47529;SDS011;33272;51.922;7.730;2022-11-14T00:25:30;29.40;;;18.07;;
47529;SDS011;33272;51.922;7.730;2022-11-14T00:27:57;27.07;;;17.03;;
47529;SDS011;33272;51.922;7.730;2022-11-14T00:30:24;26.03;;;16.80;;
47529;SDS011;33272;51.922;7.730;2022-11-14T00:32:53;27.67;;;17.40;;
47529;SDS011;33272;51.922;7.730;2022-11-14T00:35:20;26.80;;;17.40;;
47529;SDS011;33272;51.922;7.730;2022-11-14T00:37:48;27.70;;;17.60;;
47529;SDS011;33272;51.922;7.730;2022-11-14T00:40:15;26.20;;;17.70;;
47529;SDS011;33272;51.922;7.730;2022-11-14T00:42:42;28.00;;;16.97;;
47529;SDS011;33272;51.922;7.730;2022-11-14T00:45:10;28.03;;;18.13;;
47529;SDS011;33272;51.922;7.730;2022-11-14T00:47:37;28.07;;;17.80;;
47529;SDS011;33272;51.922;7.730;2022-11-14T00:50:04;26.93;;;17.27;;
47529;SDS011;33272;51.922;7.730;2022-11-14T00:52:32;26.07;;;18.40;;
47529;SDS011;33272;51.922;7.730;2022-11-14T00:55:00;27.17;;;17.67;;
47529;SDS011;33272;51.922;7.730;2022-11-14T00:57:27;27.70;;;17.63;;
47529;SDS011;33272;51.922;7.730;2022-11-14T00:59:54;28.50;;;18.30;;
47529;SDS011;33272;51.922;7.730;2022-11-14T01:02:21;25.47;;;16.47;;
47529;SDS011;33272;51.922;7.730;2022-11-14T01:04:49;24.73;;;16.63;;
47529;SDS011;33272;51.922;7.730;2022-11-14T01:07:16;29.30;;;17.77;;
47529;SDS011;33272;51.922;7.730;2022-11-14T01:09:43;27.17;;;17.60;;
47529;SDS011;33272;51.922;7.730;2022-11-14T01:12:11;28.33;;;17.53;;
47529;SDS011;33272;51.922;7.730;2022-11-14T01:14:38;26.07;;;16.67;;
47529;SDS011;33272;51.922;7.730;2022-11-14T01:17:05;27.60;;;17.70;;
47529;SDS011;33272;51.922;7.730;2022-11-14T01:19:33;27.30;;;17.37;;
47529;SDS011;33272;51.922;7.730;2022-11-14T01:22:00;27.20;;;17.53;;
47529;SDS011;33272;51.922;7.730;2022-11-14T01:24:27;27.63;;;17.80;;
47529;SDS011;33272;51.922;7.730;2022-11-14T01:26:54;25.00;;;16.10;;
47529;SDS011;33272;51.922;7.730;2022-11-14T01:29:23;25.80;;;16.20;;
47529;SDS011;33272;51.922;7.730;2022-11-14T01:31:50;25.57;;;16.57;;
47529;SDS011;33272;51.922;7.730;2022-11-14T01:34:17;26.53;;;15.67;;
47529;SDS011;33272;51.922;7.730;2022-11-14T01:36:44;22.17;;;14.73;;
47529;SDS011;33272;51.922;7.730;2022-11-14T01:39:11;22.60;;;15.50;;
47529;SDS011;33272;51.922;7.730;2022-11-14T01:41:38;25.40;;;16.50;;
47529;SDS011;33272;51.922;7.730;2022-11-14T01:44:10;26.93;;;16.10;;
47529;SDS011;33272;51.922;7.730;2022-11-14T01:46:41;24.67;;;16.43;;
47529;SDS011;33272;51.922;7.730;2022-11-14T01:49:14;25.10;;;16.90;;
47529;SDS011;33272;51.922;7.730;2022-11-14T01:51:46;24.97;;;16.53;;
47529;SDS011;33272;51.922;7.730;2022-11-14T01:54:17;26.17;;;16.40;;
47529;SDS011;33272;51.922;7.730;2022-11-14T01:56:50;25.60;;;16.63;;
47529;SDS011;33272;51.922;7.730;2022-11-14T01:59:22;25.03;;;16.00;;
47529;SDS011;33272;51.922;7.730;2022-11-14T02:01:55;23.47;;;16.40;;
47529;SDS011;33272;51.922;7.730;2022-11-14T02:04:26;22.80;;;15.47;;
47529;SDS011;33272;51.922;7.730;2022-11-14T02:06:58;22.77;;;15.60;;
47529;SDS011;33272;51.922;7.730;2022-11-14T02:09:30;26.07;;;16.53;;
47529;SDS011;33272;51.922;7.730;2022-11-14T02:12:02;24.40;;;16.43;;
47529;SDS011;33272;51.922;7.730;2022-11-14T02:14:33;24.83;;;16.43;;
47529;SDS011;33272;51.922;7.730;2022-11-14T02:17:04;25.10;;;15.93;;
47529;SDS011;33272;51.922;7.730;2022-11-14T02:19:40;22.23;;;15.77;;
47529;SDS011;33272;51.922;7.730;2022-11-14T02:22:11;25.10;;;16.47;;
47529;SDS011;33272;51.922;7.730;2022-11-14T02:24:38;24.67;;;15.33;;
47529;SDS011;33272;51.922;7.730;2022-11-14T02:27:06;24.27;;;16.47;;
47529;SDS011;33272;51.922;7.730;2022-11-14T02:29:35;24.80;;;15.73;;
47529;SDS011;33272;51.922;7.730;2022-11-14T02:32:03;24.83;;;15.50;;
47529;SDS011;33272;51.922;7.730;2022-11-14T02:34:31;24.03;;;15.77;;
47529;SDS011;33272;51.922;7.730;2022-11-14T02:36:58;25.33;;;16.40;;
47529;SDS011;33272;51.922;7.730;2022-11-14T02:39:27;23.57;;;16.40;;
47529;SDS011;33272;51.922;7.730;2022-11-14T02:41:54;27.50;;;16.57;;
47529;SDS011;33272;51.922;7.730;2022-11-14T02:44:21;26.03;;;16.20;;
47529;SDS011;33272;51.922;7.730;2022-11-14T02:46:48;21.90;;;15.10;;
47529;SDS011;33272;51.922;7.730;2022-11-14T02:49:14;25.80;;;17.13;;
47529;SDS011;33272;51.922;7.730;2022-11-14T02:51:41;25.40;;;17.03;;
47529;SDS011;33272;51.922;7.730;2022-11-14T02:54:08;26.60;;;15.07;;
47529;SDS011;33272;51.922;7.730;2022-11-14T02:56:37;24.40;;;16.67;;
47529;SDS011;33272;51.922;7.730;2022-11-14T02:59:04;25.27;;;16.10;;
47529;SDS011;33272;51.922;7.730;2022-11-14T03:01:31;27.57;;;16.70;;
47529;SDS011;33272;51.922;7.730;2022-11-14T03:03:58;24.73;;;16.33;;
47529;SDS011;33272;51.922;7.730;2022-11-14T03:06:25;24.07;;;14.90;;
47529;SDS011;33272;51.922;7.730;2022-11-14T03:08:52;25.50;;;17.10;;
47529;SDS011;33272;51.922;7.730;2022-11-14T03:11:19;25.90;;;16.43;;
47529;SDS011;33272;51.922;7.730;2022-11-14T03:13:47;25.13;;;17.70;;
47529;SDS011;33272;51.922;7.730;2022-11-14T03:16:14;25.33;;;17.13;;
47529;SDS011;33272;51.922;7.730;2022-11-14T03:18:42;40.50;;;17.73;;
47529;SDS011;33272;51.922;7.730;2022-11-14T03:21:09;29.10;;;17.77;;
47529;SDS011;33272;51.922;7.730;2022-11-14T03:23:38;28.63;;;18.03;;
47529;SDS011;33272;51.922;7.730;2022-11-14T03:26:06;28.67;;;17.03;;
47529;SDS011;33272;51.922;7.730;2022-11-14T03:28:35;31.17;;;17.80;;
47529;SDS011;33272;51.922;7.730;2022-11-14T03:31:05;27.63;;;18.40;;
47529;SDS011;33272;51.922;7.730;2022-11-14T03:33:34;28.13;;;17.90;;
47529;SDS011;33272;51.922;7.730;2022-11-14T03:36:02;27.57;;;17.93;;
47529;SDS011;33272;51.922;7.730;2022-11-14T03:38:30;29.03;;;17.20;;
47529;SDS011;33272;51.922;7.730;2022-11-14T03:40:59;26.40;;;17.27;;
47529;SDS011;33272;51.922;7.730;2022-11-14T03:43:29;26.67;;;16.80;;
47529;SDS011;33272;51.922;7.730;2022-11-14T03:45:57;28.30;;;16.47;;
47529;SDS011;33272;51.922;7.730;2022-11-14T03:48:26;27.00;;;18.03;;
47529;SDS011;33272;51.922;7.730;2022-11-14T03:50:54;26.37;;;17.30;;
47529;SDS011;33272;51.922;7.730;2022-11-14T03:53:21;25.97;;;17.27;;
47529;SDS011;33272;51.922;7.730;2022-11-14T03:55:49;27.73;;;16.37;;
47529;SDS011;33272;51.922;7.730;2022-11-14T03:58:16;29.13;;;17.53;;
47529;SDS011;33272;51.922;7.730;2022-11-14T04:00:43;25.53;;;16.37;;
47529;SDS011;33272;51.922;7.730;2022-11-14T04:03:10;25.13;;;17.27;;
47529;SDS011;33272;51.922;7.730;2022-11-14T04:05:39;28.70;;;17.57;;
47529;SDS011;33272;51.922;7.730;2022-11-14T04:08:10;26.97;;;17.30;;
47529;SDS011;33272;51.922;7.730;2022-11-14T04:10:37;25.60;;;16.83;;
47529;SDS011;33272;51.922;7.730;2022-11-14T04:13:05;26.73;;;17.67;;
47529;SDS011;33272;51.922;7.730;2022-11-14T04:15:33;29.27;;;18.27;;
47529;SDS011;33272;51.922;7.730;2022-11-14T04:18:00;27.23;;;17.27;;
47529;SDS011;33272;51.922;7.730;2022-11-14T04:20:27;27.07;;;16.97;;
47529;SDS011;33272;51.922;7.730;2022-11-14T04:22:55;28.37;;;16.93;;
47529;SDS011;33272;51.922;7.730;2022-11-14T04:25:22;27.57;;;16.93;;
47529;SDS011;33272;51.922;7.730;2022-11-14T04:27:49;28.50;;;16.57;;
47529;SDS011;33272;51.922;7.730;2022-11-14T04:30:16;24.40;;;16.77;;
47529;SDS011;33272;51.922;7.730;2022-11-14T04:32:44;26.83;;;16.90;;
47529;SDS011;33272;51.922;7.730;2022-11-14T04:35:12;22.77;;;15.43;;
47529;SDS011;33272;51.922;7.730;2022-11-14T04:37:39;25.30;;;16.47;;
47529;SDS011;33272;51.922;7.730;2022-11-14T04:40:08;27.73;;;17.63;;
47529;SDS011;33272;51.922;7.730;2022-11-14T04:42:36;30.20;;;17.87;;
47529;SDS011;33272;51.922;7.730;2022-11-14T04:45:05;29.13;;;17.33;;
47529;SDS011;33272;51.922;7.730;2022-11-14T04:47:33;30.77;;;18.13;;
47529;SDS011;33272;51.922;7.730;2022-11-14T04:50:00;24.27;;;16.63;;
47529;SDS011;33272;51.922;7.730;2022-11-14T04:52:28;26.60;;;17.20;;
47529;SDS011;33272;51.922;7.730;2022-11-14T04:54:55;24.83;;;16.83;;
47529;SDS011;33272;51.922;7.730;2022-11-14T04:57:24;25.90;;;16.97;;
47529;SDS011;33272;51.922;7.730;2022-11-14T04:59:51;25.97;;;16.60;;
47529;SDS011;33272;51.922;7.730;2022-11-14T05:02:18;25.47;;;15.63;;
47529;SDS011;33272;51.922;7.730;2022-11-14T05:04:45;24.07;;;15.97;;
47529;SDS011;33272;51.922;7.730;2022-11-14T05:07:13;25.67;;;16.30;;
47529;SDS011;33272;51.922;7.730;2022-11-14T05:09:40;27.47;;;16.90;;
47529;SDS011;33272;51.922;7.730;2022-11-14T05:12:07;26.03;;;17.07;;
47529;SDS011;33272;51.922;7.730;2022-11-14T05:14:36;23.90;;;16.17;;
47529;SDS011;33272;51.922;7.730;2022-11-14T05:17:03;27.33;;;16.67;;
47529;SDS011;33272;51.922;7.730;2022-11-14T05:19:30;25.27;;;16.43;;
47529;SDS011;33272;51.922;7.730;2022-11-14T05:21:56;24.20;;;15.13;;
47529;SDS011;33272;51.922;7.730;2022-11-14T05:24:23;25.60;;;16.00;;
47529;SDS011;33272;51.922;7.730;2022-11-14T05:26:52;25.23;;;16.70;;
47529;SDS011;33272;51.922;7.730;2022-11-14T05:29:19;23.63;;;15.20;;
47529;SDS011;33272;51.922;7.730;2022-11-14T05:31:47;24.37;;;14.50;;
47529;SDS011;33272;51.922;7.730;2022-11-14T05:34:14;23.63;;;14.70;;
47529;SDS011;33272;51.922;7.730;2022-11-14T05:36:41;23.43;;;14.03;;
47529;SDS011;33272;51.922;7.730;2022-11-14T05:39:08;24.23;;;15.80;;
47529;SDS011;33272;51.922;7.730;2022-11-14T05:41:35;23.87;;;14.97;;
47529;SDS011;33272;51.922;7.730;2022-11-14T05:44:02;24.10;;;15.67;;
47529;SDS011;33272;51.922;7.730;2022-11-14T05:46:30;24.97;;;16.73;;
47529;SDS011;33272;51.922;7.730;2022-11-14T05:48:58;25.23;;;15.30;;
47529;SDS011;33272;51.922;7.730;2022-11-14T05:51:25;24.87;;;14.83;;
47529;SDS011;33272;51.922;7.730;2022-11-14T05:53:52;23.93;;;16.13;;
47529;SDS011;33272;51.922;7.730;2022-11-14T05:56:19;21.60;;;15.00;;
47529;SDS011;33272;51.922;7.730;2022-11-14T05:58:46;22.00;;;14.67;;
47529;SDS011;33272;51.922;7.730;2022-11-14T06:01:14;20.23;;;14.67;;
47529;SDS011;33272;51.922;7.730;2022-11-14T06:03:44;22.97;;;14.57;;
47529;SDS011;33272;51.922;7.730;2022-11-14T06:06:14;21.33;;;14.40;;
47529;SDS011;33272;51.922;7.730;2022-11-14T06:08:43;23.90;;;15.03;;
47529;SDS011;33272;51.922;7.730;2022-11-14T06:11:11;21.83;;;14.80;;
47529;SDS011;33272;51.922;7.730;2022-11-14T06:13:40;21.00;;;14.13;;
47529;SDS011;33272;51.922;7.730;2022-11-14T06:16:08;25.13;;;14.70;;
47529;SDS011;33272;51.922;7.730;2022-11-14T06:18:37;21.70;;;14.03;;
47529;SDS011;33272;51.922;7.730;2022-11-14T06:21:05;19.30;;;13.03;;
47529;SDS011;33272;51.922;7.730;2022-11-14T06:23:37;24.23;;;13.53;;
47529;SDS011;33272;51.922;7.730;2022-11-14T06:26:05;21.00;;;14.43;;
47529;SDS011;33272;51.922;7.730;2022-11-14T06:28:46;20.70;;;14.23;;
47529;SDS011;33272;51.922;7.730;2022-11-14T06:31:13;19.83;;;14.53;;
47529;SDS011;33272;51.922;7.730;2022-11-14T06:33:41;24.20;;;14.40;;
47529;SDS011;33272;51.922;7.730;2022-11-14T06:36:08;24.70;;;14.73;;
47529;SDS011;33272;51.922;7.730;2022-11-14T06:38:38;22.33;;;14.43;;
47529;SDS011;33272;51.922;7.730;2022-11-14T06:41:07;22.40;;;15.10;;
47529;SDS011;33272;51.922;7.730;2022-11-14T06:43:36;22.67;;;14.20;;
47529;SDS011;33272;51.922;7.730;2022-11-14T06:46:05;24.67;;;15.47;;
47529;SDS011;33272;51.922;7.730;2022-11-14T06:48:34;24.83;;;15.63;;
47529;SDS011;33272;51.922;7.730;2022-11-14T06:51:02;20.80;;;13.43;;
47529;SDS011;33272;51.922;7.730;2022-11-14T06:53:31;23.07;;;14.87;;
47529;SDS011;33272;51.922;7.730;2022-11-14T06:56:02;23.57;;;15.20;;
47529;SDS011;33272;51.922;7.730;2022-11-14T06:58:32;26.03;;;14.57;;
47529;SDS011;33272;51.922;7.730;2022-11-14T07:01:03;26.60;;;14.57;;
47529;SDS011;33272;51.922;7.730;2022-11-14T07:03:31;26.20;;;15.00;;
47529;SDS011;33272;51.922;7.730;2022-11-14T07:05:59;22.17;;;14.80;;
47529;SDS011;33272;51.922;7.730;2022-11-14T07:08:26;21.43;;;14.80;;
47529;SDS011;33272;51.922;7.730;2022-11-14T07:10:59;23.90;;;14.60;;
47529;SDS011;33272;51.922;7.730;2022-11-14T07:13:29;23.37;;;14.90;;
47529;SDS011;33272;51.922;7.730;2022-11-14T07:15:56;25.23;;;14.43;;
47529;SDS011;33272;51.922;7.730;2022-11-14T07:18:24;28.23;;;15.30;;
47529;SDS011;33272;51.922;7.730;2022-11-14T07:20:55;24.17;;;15.77;;
47529;SDS011;33272;51.922;7.730;2022-11-14T07:23:23;21.50;;;14.00;;
47529;SDS011;33272;51.922;7.730;2022-11-14T07:25:51;22.27;;;14.50;;
47529;SDS011;33272;51.922;7.730;2022-11-14T07:28:19;23.20;;;15.40;;
47529;SDS011;33272;51.922;7.730;2022-11-14T07:30:46;23.37;;;14.90;;
47529;SDS011;33272;51.922;7.730;2022-11-14T07:33:13;26.60;;;15.60;;
47529;SDS011;33272;51.922;7.730;2022-11-14T07:35:40;22.87;;;14.17;;
47529;SDS011;33272;51.922;7.730;2022-11-14T07:38:07;22.37;;;15.10;;
47529;SDS011;33272;51.922;7.730;2022-11-14T07:40:34;22.47;;;14.90;;
47529;SDS011;33272;51.922;7.730;2022-11-14T07:43:02;26.90;;;16.00;;
47529;SDS011;33272;51.922;7.730;2022-11-14T07:45:30;23.10;;;14.83;;
47529;SDS011;33272;51.922;7.730;2022-11-14T07:47:58;26.17;;;15.07;;
47529;SDS011;33272;51.922;7.730;2022-11-14T07:50:27;25.43;;;16.57;;
47529;SDS011;33272;51.922;7.730;2022-11-14T07:52:55;26.87;;;16.13;;
47529;SDS011;33272;51.922;7.730;2022-11-14T07:55:22;28.90;;;16.03;;
47529;SDS011;33272;51.922;7.730;2022-11-14T07:57:53;27.77;;;15.03;;
47529;SDS011;33272;51.922;7.730;2022-11-14T08:00:20;23.37;;;15.30;;
47529;SDS011;33272;51.922;7.730;2022-11-14T08:02:49;24.43;;;14.57;;
47529;SDS011;33272;51.922;7.730;2022-11-14T08:05:16;23.70;;;15.47;;
47529;SDS011;33272;51.922;7.730;2022-11-14T08:07:43;22.43;;;15.23;;
47529;SDS011;33272;51.922;7.730;2022-11-14T08:10:10;20.67;;;14.70;;
47529;SDS011;33272;51.922;7.730;2022-11-14T08:12:38;27.63;;;16.47;;
47529;SDS011;33272;51.922;7.730;2022-11-14T08:15:06;23.83;;;15.87;;
47529;SDS011;33272;51.922;7.730;2022-11-14T08:17:36;21.80;;;15.53;;
47529;SDS011;33272;51.922;7.730;2022-11-14T08:20:05;25.37;;;16.07;;
47529;SDS011;33272;51.922;7.730;2022-11-14T08:22:34;24.37;;;15.77;;
47529;SDS011;33272;51.922;7.730;2022-11-14T08:25:01;19.07;;;14.20;;
47529;SDS011;33272;51.922;7.730;2022-11-14T08:27:28;21.10;;;15.60;;
47529;SDS011;33272;51.922;7.730;2022-11-14T08:29:55;20.33;;;14.93;;
47529;SDS011;33272;51.922;7.730;2022-11-14T08:32:22;19.83;;;14.47;;
47529;SDS011;33272;51.922;7.730;2022-11-14T08:34:49;22.67;;;15.27;;
47529;SDS011;33272;51.922;7.730;2022-11-14T08:37:18;21.13;;;14.70;;
47529;SDS011;33272;51.922;7.730;2022-11-14T08:39:45;21.27;;;15.63;;
47529;SDS011;33272;51.922;7.730;2022-11-14T08:42:12;20.33;;;14.67;;
47529;SDS011;33272;51.922;7.730;2022-11-14T08:44:39;20.90;;;14.73;;
47529;SDS011;33272;51.922;7.730;2022-11-14T08:47:05;20.10;;;15.00;;
47529;SDS011;33272;51.922;7.730;2022-11-14T08:49:32;18.43;;;13.70;;
47529;SDS011;33272;51.922;7.730;2022-11-14T08:51:59;17.87;;;13.87;;
47529;SDS011;33272;51.922;7.730;2022-11-14T08:54:28;17.37;;;13.47;;
47529;SDS011;33272;51.922;7.730;2022-11-14T08:56:55;20.83;;;14.60;;
47529;SDS011;33272;51.922;7.730;2022-11-14T08:59:22;18.77;;;14.27;;
47529;SDS011;33272;51.922;7.730;2022-11-14T09:01:49;20.97;;;14.10;;
47529;SDS011;33272;51.922;7.730;2022-11-14T09:04:16;16.83;;;13.67;;
47529;SDS011;33272;51.922;7.730;2022-11-14T09:06:43;16.03;;;12.87;;
47529;SDS011;33272;51.922;7.730;2022-11-14T09:09:10;17.07;;;12.43;;
47529;SDS011;33272;51.922;7.730;2022-11-14T09:11:39;17.27;;;12.80;;
47529;SDS011;33272;51.922;7.730;2022-11-14T09:14:06;15.83;;;13.30;;
47529;SDS011;33272;51.922;7.730;2022-11-14T09:16:33;15.30;;;12.67;;
47529;SDS011;33272;51.922;7.730;2022-11-14T09:19:00;14.37;;;11.87;;
47529;SDS011;33272;51.922;7.730;2022-11-14T09:21:27;15.87;;;12.90;;
47529;SDS011;33272;51.922;7.730;2022-11-14T09:23:54;17.80;;;12.73;;
47529;SDS011;33272;51.922;7.730;2022-11-14T09:26:21;16.63;;;12.00;;
47529;SDS011;33272;51.922;7.730;2022-11-14T09:28:50;14.83;;;12.30;;
47529;SDS011;33272;51.922;7.730;2022-11-14T09:31:17;16.60;;;12.53;;
47529;SDS011;33272;51.922;7.730;2022-11-14T09:33:44;15.23;;;12.03;;
47529;SDS011;33272;51.922;7.730;2022-11-14T09:36:11;17.40;;;12.50;;
47529;SDS011;33272;51.922;7.730;2022-11-14T09:38:40;15.10;;;12.67;;
47529;SDS011;33272;51.922;7.730;2022-11-14T09:41:21;14.13;;;11.57;;
47529;SDS011;33272;51.922;7.730;2022-11-14T09:44:01;13.27;;;10.90;;
47529;SDS011;33272;51.922;7.730;2022-11-14T09:47:01;13.50;;;11.40;;
47529;SDS011;33272;51.922;7.730;2022-11-14T09:49:35;14.70;;;12.20;;
47529;SDS011;33272;51.922;7.730;2022-11-14T09:52:08;16.57;;;12.40;;
47529;SDS011;33272;51.922;7.730;2022-11-14T09:54:45;13.37;;;11.20;;
47529;SDS011;33272;51.922;7.730;2022-11-14T09:57:18;12.40;;;11.10;;
47529;SDS011;33272;51.922;7.730;2022-11-14T09:59:47;13.33;;;11.93;;
47529;SDS011;33272;51.922;7.730;2022-11-14T10:05:12;13.70;;;11.13;;
47529;SDS011;33272;51.922;7.730;2022-11-14T10:08:03;14.23;;;11.43;;
47529;SDS011;33272;51.922;7.730;2022-11-14T10:10:48;14.40;;;11.33;;
47529;SDS011;33272;51.922;7.730;2022-11-14T10:13:29;13.10;;;11.70;;
47529;SDS011;33272;51.922;7.730;2022-11-14T10:16:12;13.23;;;10.83;;
47529;SDS011;33272;51.922;7.730;2022-11-14T10:18:52;12.30;;;10.60;;
47529;SDS011;33272;51.922;7.730;2022-11-14T10:21:35;13.33;;;11.80;;
47529;SDS011;33272;51.922;7.730;2022-11-14T10:24:16;13.40;;;10.87;;
47529;SDS011;33272;51.922;7.730;2022-11-14T10:27:02;11.93;;;10.70;;
47529;SDS011;33272;51.922;7.730;2022-11-14T10:29:46;12.87;;;11.37;;
47529;SDS011;33272;51.922;7.730;2022-11-14T10:32:34;11.90;;;10.37;;
47529;SDS011;33272;51.922;7.730;2022-11-14T10:35:24;13.00;;;11.60;;
47529;SDS011;33272;51.922;7.730;2022-11-14T10:37:57;12.60;;;10.80;;
47529;SDS011;33272;51.922;7.730;2022-11-14T10:40:37;13.20;;;10.80;;
47529;SDS011;33272;51.922;7.730;2022-11-14T10:43:15;12.67;;;10.53;;
47529;SDS011;33272;51.922;7.730;2022-11-14T10:45:50;14.70;;;11.47;;
47529;SDS011;33272;51.922;7.730;2022-11-14T10:48:27;13.60;;;11.30;;
47529;SDS011;33272;51.922;7.730;2022-11-14T10:50:56;14.63;;;11.73;;
47529;SDS011;33272;51.922;7.730;2022-11-14T10:53:28;13.63;;;11.13;;
47529;SDS011;33272;51.922;7.730;2022-11-14T10:56:09;14.50;;;11.13;;
47529;SDS011;33272;51.922;7.730;2022-11-14T10:58:38;14.37;;;11.30;;
47529;SDS011;33272;51.922;7.730;2022-11-14T11:04:11;11.73;;;10.10;;
47529;SDS011;33272;51.922;7.730;2022-11-14T11:06:45;10.87;;;9.77;;
47529;SDS011;33272;51.922;7.730;2022-11-14T11:09:14;11.90;;;10.60;;
47529;SDS011;33272;51.922;7.730;2022-11-14T11:12:02;14.77;;;10.73;;
47529;SDS011;33272;51.922;7.730;2022-11-14T11:14:31;13.53;;;11.03;;
47529;SDS011;33272;51.922;7.730;2022-11-14T11:19:51;11.97;;;10.67;;
47529;SDS011;33272;51.922;7.730;2022-11-14T11:22:23;13.23;;;10.67;;
47529;SDS011;33272;51.922;7.730;2022-11-14T11:25:02;12.30;;;11.00;;
47529;SDS011;33272;51.922;7.730;2022-11-14T11:27:56;13.30;;;11.30;;
47529;SDS011;33272;51.922;7.730;2022-11-14T11:30:36;12.23;;;10.13;;
47529;SDS011;33272;51.922;7.730;2022-11-14T11:33:20;12.77;;;10.80;;
47529;SDS011;33272;51.922;7.730;2022-11-14T11:35:53;12.97;;;11.30;;
47529;SDS011;33272;51.922;7.730;2022-11-14T11:38:23;11.10;;;9.90;;
47529;SDS011;33272;51.922;7.730;2022-11-14T11:40:53;12.80;;;10.80;;
47529;SDS011;33272;51.922;7.730;2022-11-14T11:43:33;13.00;;;9.90;;
47529;SDS011;33272;51.922;7.730;2022-11-14T11:46:10;12.00;;;10.80;;
47529;SDS011;33272;51.922;7.730;2022-11-14T11:48:43;11.87;;;9.87;;
47529;SDS011;33272;51.922;7.730;2022-11-14T11:51:15;12.13;;;10.40;;
47529;SDS011;33272;51.922;7.730;2022-11-14T11:53:49;12.83;;;11.20;;
47529;SDS011;33272;51.922;7.730;2022-11-14T11:56:26;15.20;;;11.53;;
47529;SDS011;33272;51.922;7.730;2022-11-14T11:58:58;14.10;;;10.73;;
47529;SDS011;33272;51.922;7.730;2022-11-14T12:01:40;13.50;;;10.73;;
47529;SDS011;33272;51.922;7.730;2022-11-14T12:04:07;11.93;;;9.77;;
47529;SDS011;33272;51.922;7.730;2022-11-14T12:06:37;11.40;;;9.27;;
47529;SDS011;33272;51.922;7.730;2022-11-14T12:09:13;12.67;;;9.40;;
47529;SDS011;33272;51.922;7.730;2022-11-14T12:11:47;12.77;;;9.63;;
47529;SDS011;33272;51.922;7.730;2022-11-14T12:14:24;9.03;;;8.03;;
47529;SDS011;33272;51.922;7.730;2022-11-14T12:17:23;10.37;;;9.10;;
47529;SDS011;33272;51.922;7.730;2022-11-14T12:20:20;12.83;;;8.83;;
47529;SDS011;33272;51.922;7.730;2022-11-14T12:26:46;11.67;;;9.20;;
47529;SDS011;33272;51.922;7.730;2022-11-14T12:29:28;10.23;;;9.17;;
47529;SDS011;33272;51.922;7.730;2022-11-14T12:32:31;11.30;;;8.70;;
47529;SDS011;33272;51.922;7.730;2022-11-14T12:35:04;10.17;;;8.53;;
47529;SDS011;33272;51.922;7.730;2022-11-14T12:37:41;10.97;;;8.73;;
47529;SDS011;33272;51.922;7.730;2022-11-14T12:42:57;9.40;;;7.97;;
47529;SDS011;33272;51.922;7.730;2022-11-14T12:48:28;8.57;;;6.83;;
47529;SDS011;33272;51.922;7.730;2022-11-14T12:50:59;8.50;;;7.03;;
47529;SDS011;33272;51.922;7.730;2022-11-14T12:53:40;9.37;;;6.87;;
47529;SDS011;33272;51.922;7.730;2022-11-14T12:59:19;7.80;;;6.73;;
47529;SDS011;33272;51.922;7.730;2022-11-14T13:05:13;8.93;;;7.73;;
47529;SDS011;33272;51.922;7.730;2022-11-14T13:08:15;8.50;;;7.60;;
47529;SDS011;33272;51.922;7.730;2022-11-14T13:14:25;9.67;;;7.60;;
47529;SDS011;33272;51.922;7.730;2022-11-14T13:17:23;9.60;;;7.50;;
47529;SDS011;33272;51.922;7.730;2022-11-14T13:20:26;9.27;;;7.30;;
47529;SDS011;33272;51.922;7.730;2022-11-14T13:35:38;9.20;;;7.90;;
47529;SDS011;33272;51.922;7.730;2022-11-14T13:45:15;8.50;;;7.20;;
47529;SDS011;33272;51.922;7.730;2022-11-14T13:48:19;9.33;;;8.00;;
47529;SDS011;33272;51.922;7.730;2022-11-14T13:51:11;14.00;;;8.03;;
47529;SDS011;33272;51.922;7.730;2022-11-14T13:53:42;12.33;;;9.07;;
47529;SDS011;33272;51.922;7.730;2022-11-14T13:56:13;10.43;;;8.07;;
47529;SDS011;33272;51.922;7.730;2022-11-14T14:02:19;11.63;;;8.57;;
47529;SDS011;33272;51.922;7.730;2022-11-14T14:05:11;9.97;;;8.30;;
47529;SDS011;33272;51.922;7.730;2022-11-14T14:07:57;10.37;;;8.77;;
47529;SDS011;33272;51.922;7.730;2022-11-14T14:10:40;10.93;;;8.87;;
47529;SDS011;33272;51.922;7.730;2022-11-14T14:13:21;9.40;;;8.30;;
47529;SDS011;33272;51.922;7.730;2022-11-14T14:16:06;9.60;;;7.93;;
47529;SDS011;33272;51.922;7.730;2022-11-14T14:18:44;8.87;;;7.90;;
47529;SDS011;33272;51.922;7.730;2022-11-14T14:21:28;9.07;;;7.90;;
47529;SDS011;33272;51.922;7.730;2022-11-14T14:24:06;11.40;;;9.23;;
47529;SDS011;33272;51.922;7.730;2022-11-14T14:26:52;10.27;;;9.23;;
47529;SDS011;33272;51.922;7.730;2022-11-14T14:29:31;11.63;;;9.47;;
47529;SDS011;33272;51.922;7.730;2022-11-14T14:32:12;10.57;;;9.47;;
47529;SDS011;33272;51.922;7.730;2022-11-14T14:34:42;13.47;;;9.60;;
47529;SDS011;33272;51.922;7.730;2022-11-14T14:37:13;11.23;;;9.40;;
47529;SDS011;33272;51.922;7.730;2022-11-14T14:39:57;10.93;;;9.30;;
47529;SDS011;33272;51.922;7.730;2022-11-14T14:42:25;11.27;;;9.70;;
47529;SDS011;33272;51.922;7.730;2022-11-14T14:44:59;11.37;;;10.17;;
47529;SDS011;33272;51.922;7.730;2022-11-14T14:47:32;12.13;;;10.07;;
47529;SDS011;33272;51.922;7.730;2022-11-14T14:50:07;12.60;;;10.17;;
47529;SDS011;33272;51.922;7.730;2022-11-14T14:52:42;12.03;;;10.37;;
47529;SDS011;33272;51.922;7.730;2022-11-14T14:55:17;12.37;;;9.87;;
47529;SDS011;33272;51.922;7.730;2022-11-14T14:57:48;12.33;;;9.87;;
47529;SDS011;33272;51.922;7.730;2022-11-14T15:00:18;11.17;;;9.77;;
47529;SDS011;33272;51.922;7.730;2022-11-14T15:02:50;11.87;;;10.07;;
47529;SDS011;33272;51.922;7.730;2022-11-14T15:05:23;11.83;;;10.13;;
47529;SDS011;33272;51.922;7.730;2022-11-14T15:07:54;11.90;;;9.73;;
47529;SDS011;33272;51.922;7.730;2022-11-14T15:10:24;13.17;;;10.00;;
47529;SDS011;33272;51.922;7.730;2022-11-14T15:12:55;11.13;;;9.57;;
47529;SDS011;33272;51.922;7.730;2022-11-14T15:15:23;10.53;;;9.43;;
47529;SDS011;33272;51.922;7.730;2022-11-14T15:17:52;11.87;;;10.50;;
47529;SDS011;33272;51.922;7.730;2022-11-14T15:20:24;12.80;;;9.43;;
47529;SDS011;33272;51.922;7.730;2022-11-14T15:23:03;9.93;;;8.93;;
47529;SDS011;33272;51.922;7.730;2022-11-14T15:25:42;11.60;;;10.20;;
47529;SDS011;33272;51.922;7.730;2022-11-14T15:28:14;12.47;;;10.37;;
47529;SDS011;33272;51.922;7.730;2022-11-14T15:30:54;12.63;;;10.23;;
47529;SDS011;33272;51.922;7.730;2022-11-14T15:33:25;11.37;;;9.73;;
47529;SDS011;33272;51.922;7.730;2022-11-14T15:36:05;11.47;;;9.37;;
47529;SDS011;33272;51.922;7.730;2022-11-14T15:38:35;10.70;;;9.53;;